Mozart, West Virginia
Current Conditions -  °F | °C
As of 11:01 PM on Thursday 18 Dec 2014 (Local Time) from KHLG Reporting Station
Overcast Overcast  
Wind Chill: 22°   Ceiling: 1400
Heat Index: 27°   Visibility: 9mi
Dew Point: 21°   Wind: 5mph
Humidity: 78%   Direction: 260°W
Pressure: 30.16"   Gusts: NA
Location:  40.0729°N, 80.6524°W
Report Text: KHLG 190401Z AUTO 26004KT 9SM OVC014 M03/M06 A3016 RMK AO2 T10281061
Loading
Personal Weather Stations






























Interactive Weather Map New forecast layout! Learn more

10-Day Weather Forecast

Advertisements
Track Severe Weather on mobile